EHRD/RTM METAR and TAF weather

Enter ICAO airport designator
Station Type Date Time Source
EHRD METAR 2018/12/10 19:55 UTC NOAA

EHRD 101955Z AUTO 30007KT 270V340 9999 SCT027 BKN031 BKN042 05/02 Q1024 NOSIG


Station Type Date Time Source
EHRD Decoded METAR 2018/12/10 19:55 UTC NOAA

Rotterdam Airport Zestienhoven, Netherlands (EHRD) 51-57N 004-27E -4M
Dec 10, 2018 - 02:55 PM EST / 2018.12.10 1955 UTC
Wind: from the WNW (300 degrees) at 8 MPH (7 KT) (direction variable):0
Visibility: greater than 7 mile(s):0
Sky conditions: mostly cloudy
Temperature: 41 F (5 C)
Dew Point: 35 F (2 C)
Relative Humidity: 80%
Pressure (altimeter): 30.24 in. Hg (1024 hPa)
ob: EHRD 101955Z AUTO 30007KT 270V340 9999 SCT027 BKN031 BKN042 05/02 Q1024 NOSIG
cycle: 20

Station Type Date Time Source
EHRD TAF 2018/12/10 18:27 UTC NOAA

TAF EHRD 101700Z 1018/1124 31014KT 9999 SCT030 PROB30
TEMPO 1018/1106 7000 -SHRA FEW025TCU
BECMG 1100/1103 33009KT
BECMG 1115/1118 VRB03KT


Example: see airport list